Clara City, MN

2:26 AM CST on December 04, 2016 (GMT -0600)
MNDOT | | Change Station

Elev 1053 ft 44.95 °N, 95.41 °W | Updated 21 minutes ago

Overcast
Overcast
33.0 °F
Feels Like 26 °F
N
9.0
Wind Variable Wind from SSE
Gusts 12.0 mph

Today
High -- | Low -- °F
--% Chance of Precip.
Yesterday
High -- | Low -- °F
Precip. -- in
Pressure 29.98 in
Visibility 7.0 miles
Clouds Overcast 600 ft
Windchill 26 °F
Dew Point 32.0 °F
Humidity 95%
Rainfall in
Snow Depth Not available.
7:43 AM 4:40 PM
Waxing Crescent, 21% visible
METAR KBDH 040815Z AUTO 16009KT 7SM OVC006 01/01 A2998 RMK AO2
Pressure 29.98 in
Visibility 7.0 miles
Clouds Overcast 600 ft
Windchill 26 °F
Dew Point 32.0 °F
Humidity 95%
Rainfall in
Snow Depth Not available.
7:43 AM 4:40 PM
Waxing Crescent, 21% visible
METAR KBDH 040815Z AUTO 16009KT 7SM OVC006 01/01 A2998 RMK AO2

10-Day Weather Forecast

Almanac

Astronomy

Dec. 04, 2016 Rise Set
Actual Time
Civil Twilight
Nautical Twilight
Astronomical Twilight
Moon
Length of Visible Light
Length of Day
Tomorrow will be .
, % of the Moon is Illuminated

Today's Extremes

State Highs State Lows

Community

WunderPhotos

Upload Photos

1,955,587 photos uploaded!

WunderBlog® & News

Nearby

Air Quality

  Air Quality AQ Index Pollutant
Not available.

Snow Depth

Station Depth Elevation

Earthquake Activity

City Distance Mag. Time & Date
Minimum magnitude displayed is 2.5.

Coastal Water Temperatures

Place Temperature

Stations

Nearby Weather Stations

Station Location Temp. Windchill Dew Point Humidity Wind Precip. Elev Updated Type
                   

Watches & Warnings

There are currently no watches in effect.